sensor_id;sensor_type;location;lat;lon;timestamp;temperature;humidity
38973;DHT22;25333;50.762;4.470;2022-09-13T00:00:33;16.90;99.90
38973;DHT22;25333;50.762;4.470;2022-09-13T00:02:59;16.80;99.90
38973;DHT22;25333;50.762;4.470;2022-09-13T00:05:25;16.70;99.90
38973;DHT22;25333;50.762;4.470;2022-09-13T00:07:50;16.70;99.90
38973;DHT22;25333;50.762;4.470;2022-09-13T00:10:16;16.80;99.90
38973;DHT22;25333;50.762;4.470;2022-09-13T00:12:42;16.80;99.90
38973;DHT22;25333;50.762;4.470;2022-09-13T00:15:08;16.80;99.90
38973;DHT22;25333;50.762;4.470;2022-09-13T00:17:34;16.70;99.90
38973;DHT22;25333;50.762;4.470;2022-09-13T00:19:59;16.70;99.90
38973;DHT22;25333;50.762;4.470;2022-09-13T00:22:26;16.70;99.90
38973;DHT22;25333;50.762;4.470;2022-09-13T00:24:52;16.60;99.90
38973;DHT22;25333;50.762;4.470;2022-09-13T00:27:18;16.60;99.90
38973;DHT22;25333;50.762;4.470;2022-09-13T00:29:43;16.60;99.90
38973;DHT22;25333;50.762;4.470;2022-09-13T00:32:09;16.70;99.90
38973;DHT22;25333;50.762;4.470;2022-09-13T00:34:35;16.70;99.90
38973;DHT22;25333;50.762;4.470;2022-09-13T00:37:00;16.60;99.90
38973;DHT22;25333;50.762;4.470;2022-09-13T00:39:26;16.50;99.90
38973;DHT22;25333;50.762;4.470;2022-09-13T00:41:51;16.60;99.90
38973;DHT22;25333;50.762;4.470;2022-09-13T00:44:51;16.60;99.90
38973;DHT22;25333;50.762;4.470;2022-09-13T00:47:36;16.70;99.90
38973;DHT22;25333;50.762;4.470;2022-09-13T00:52:56;16.70;99.90
38973;DHT22;25333;50.762;4.470;2022-09-13T00:55:27;16.70;99.90
38973;DHT22;25333;50.762;4.470;2022-09-13T00:57:55;16.70;99.90
38973;DHT22;25333;50.762;4.470;2022-09-13T01:00:23;16.70;99.90
38973;DHT22;25333;50.762;4.470;2022-09-13T01:02:56;16.80;99.90
38973;DHT22;25333;50.762;4.470;2022-09-13T01:05:27;16.90;99.90
38973;DHT22;25333;50.762;4.470;2022-09-13T01:07:55;16.90;99.90
38973;DHT22;25333;50.762;4.470;2022-09-13T01:10:21;16.90;99.90
38973;DHT22;25333;50.762;4.470;2022-09-13T01:13:23;16.90;99.90
38973;DHT22;25333;50.762;4.470;2022-09-13T01:15:50;16.90;99.90
38973;DHT22;25333;50.762;4.470;2022-09-13T01:18:17;16.90;99.90
38973;DHT22;25333;50.762;4.470;2022-09-13T01:31:39;16.70;99.90
38973;DHT22;25333;50.762;4.470;2022-09-13T01:42:06;16.90;99.90
38973;DHT22;25333;50.762;4.470;2022-09-13T01:53:17;16.90;99.90
38973;DHT22;25333;50.762;4.470;2022-09-13T01:55:49;16.80;99.90
38973;DHT22;25333;50.762;4.470;2022-09-13T01:58:21;16.60;99.90
38973;DHT22;25333;50.762;4.470;2022-09-13T02:01:06;16.70;99.90
38973;DHT22;25333;50.762;4.470;2022-09-13T02:03:36;16.80;99.90
38973;DHT22;25333;50.762;4.470;2022-09-13T02:06:09;16.90;99.90
38973;DHT22;25333;50.762;4.470;2022-09-13T02:09:03;17.00;99.90
38973;DHT22;25333;50.762;4.470;2022-09-13T02:11:34;17.10;99.90
38973;DHT22;25333;50.762;4.470;2022-09-13T02:14:16;17.10;99.90
38973;DHT22;25333;50.762;4.470;2022-09-13T02:16:57;16.90;99.90
38973;DHT22;25333;50.762;4.470;2022-09-13T02:19:34;17.00;99.90
38973;DHT22;25333;50.762;4.470;2022-09-13T02:22:02;16.90;99.90
38973;DHT22;25333;50.762;4.470;2022-09-13T02:24:32;16.80;99.90
38973;DHT22;25333;50.762;4.470;2022-09-13T02:27:03;16.80;99.90
38973;DHT22;25333;50.762;4.470;2022-09-13T02:29:31;16.90;99.90
38973;DHT22;25333;50.762;4.470;2022-09-13T02:32:06;16.90;99.90
38973;DHT22;25333;50.762;4.470;2022-09-13T02:35:01;17.00;99.90
38973;DHT22;25333;50.762;4.470;2022-09-13T02:37:29;17.00;99.90
38973;DHT22;25333;50.762;4.470;2022-09-13T02:40:08;16.90;99.90
38973;DHT22;25333;50.762;4.470;2022-09-13T02:42:45;16.90;99.90
38973;DHT22;25333;50.762;4.470;2022-09-13T02:45:13;17.00;99.90
38973;DHT22;25333;50.762;4.470;2022-09-13T02:47:51;17.00;99.90
38973;DHT22;25333;50.762;4.470;2022-09-13T02:50:22;17.00;99.90
38973;DHT22;25333;50.762;4.470;2022-09-13T02:55:27;17.00;99.90
38973;DHT22;25333;50.762;4.470;2022-09-13T03:00:35;17.10;99.90
38973;DHT22;25333;50.762;4.470;2022-09-13T03:03:04;17.10;99.90
38973;DHT22;25333;50.762;4.470;2022-09-13T03:05:31;17.20;99.90
38973;DHT22;25333;50.762;4.470;2022-09-13T03:07:58;17.10;99.90
38973;DHT22;25333;50.762;4.470;2022-09-13T03:10:27;17.10;99.90
38973;DHT22;25333;50.762;4.470;2022-09-13T03:13:18;17.10;99.90
38973;DHT22;25333;50.762;4.470;2022-09-13T03:24:24;17.10;99.90
38973;DHT22;25333;50.762;4.470;2022-09-13T03:32:40;16.90;99.90
38973;DHT22;25333;50.762;4.470;2022-09-13T03:45:37;17.00;99.90
38973;DHT22;25333;50.762;4.470;2022-09-13T03:48:05;17.10;99.90
38973;DHT22;25333;50.762;4.470;2022-09-13T03:50:32;17.10;99.90
38973;DHT22;25333;50.762;4.470;2022-09-13T03:53:02;17.20;99.90
38973;DHT22;25333;50.762;4.470;2022-09-13T03:55:31;17.10;99.90
38973;DHT22;25333;50.762;4.470;2022-09-13T03:57:57;17.20;99.90
38973;DHT22;25333;50.762;4.470;2022-09-13T04:00:22;17.20;99.90
38973;DHT22;25333;50.762;4.470;2022-09-13T04:02:48;17.20;99.90
38973;DHT22;25333;50.762;4.470;2022-09-13T04:05:14;17.20;99.90
38973;DHT22;25333;50.762;4.470;2022-09-13T04:07:39;17.10;99.90
38973;DHT22;25333;50.762;4.470;2022-09-13T04:10:05;17.10;99.90
38973;DHT22;25333;50.762;4.470;2022-09-13T04:12:32;17.10;99.90
38973;DHT22;25333;50.762;4.470;2022-09-13T04:14:57;17.20;99.90
38973;DHT22;25333;50.762;4.470;2022-09-13T04:17:23;17.10;99.90
38973;DHT22;25333;50.762;4.470;2022-09-13T04:19:48;17.10;99.90
38973;DHT22;25333;50.762;4.470;2022-09-13T04:22:14;17.00;99.90
38973;DHT22;25333;50.762;4.470;2022-09-13T04:24:40;17.20;99.90
38973;DHT22;25333;50.762;4.470;2022-09-13T04:27:07;17.20;99.90
38973;DHT22;25333;50.762;4.470;2022-09-13T04:29:33;17.20;99.90
38973;DHT22;25333;50.762;4.470;2022-09-13T04:31:59;17.30;99.90
38973;DHT22;25333;50.762;4.470;2022-09-13T04:34:24;17.30;99.90
38973;DHT22;25333;50.762;4.470;2022-09-13T04:36:51;17.30;99.90
38973;DHT22;25333;50.762;4.470;2022-09-13T04:39:18;17.30;99.90
38973;DHT22;25333;50.762;4.470;2022-09-13T04:41:45;17.40;99.90
38973;DHT22;25333;50.762;4.470;2022-09-13T04:44:13;17.40;99.90
38973;DHT22;25333;50.762;4.470;2022-09-13T04:46:39;17.40;99.90
38973;DHT22;25333;50.762;4.470;2022-09-13T04:49:06;17.40;99.90
38973;DHT22;25333;50.762;4.470;2022-09-13T04:51:31;17.40;99.90
38973;DHT22;25333;50.762;4.470;2022-09-13T04:53:57;17.40;99.90
38973;DHT22;25333;50.762;4.470;2022-09-13T04:56:25;17.40;99.90
38973;DHT22;25333;50.762;4.470;2022-09-13T04:58:51;17.30;99.90
38973;DHT22;25333;50.762;4.470;2022-09-13T05:01:17;17.30;99.90
38973;DHT22;25333;50.762;4.470;2022-09-13T05:03:43;17.30;99.90
38973;DHT22;25333;50.762;4.470;2022-09-13T05:06:11;17.30;99.90
38973;DHT22;25333;50.762;4.470;2022-09-13T05:08:37;17.30;99.90
38973;DHT22;25333;50.762;4.470;2022-09-13T05:11:04;17.40;99.90
38973;DHT22;25333;50.762;4.470;2022-09-13T05:13:31;17.40;99.90
38973;DHT22;25333;50.762;4.470;2022-09-13T05:16:06;17.40;99.90
38973;DHT22;25333;50.762;4.470;2022-09-13T05:18:34;17.40;99.90
38973;DHT22;25333;50.762;4.470;2022-09-13T05:21:01;17.40;99.90
38973;DHT22;25333;50.762;4.470;2022-09-13T05:23:29;17.40;99.90
38973;DHT22;25333;50.762;4.470;2022-09-13T05:25:56;17.40;99.90
38973;DHT22;25333;50.762;4.470;2022-09-13T05:28:23;17.40;99.90
38973;DHT22;25333;50.762;4.470;2022-09-13T05:31:07;17.40;99.90
38973;DHT22;25333;50.762;4.470;2022-09-13T05:33:36;17.30;99.90
38973;DHT22;25333;50.762;4.470;2022-09-13T05:36:02;17.30;99.90
38973;DHT22;25333;50.762;4.470;2022-09-13T05:38:28;17.30;99.90
38973;DHT22;25333;50.762;4.470;2022-09-13T05:40:58;17.30;99.90
38973;DHT22;25333;50.762;4.470;2022-09-13T05:43:25;17.40;99.90
38973;DHT22;25333;50.762;4.470;2022-09-13T05:46:00;17.40;99.90
38973;DHT22;25333;50.762;4.470;2022-09-13T05:48:26;17.40;99.90
38973;DHT22;25333;50.762;4.470;2022-09-13T05:50:51;17.40;99.90
38973;DHT22;25333;50.762;4.470;2022-09-13T05:53:17;17.50;99.90
38973;DHT22;25333;50.762;4.470;2022-09-13T05:55:42;17.50;99.90
38973;DHT22;25333;50.762;4.470;2022-09-13T05:58:08;17.40;99.90
38973;DHT22;25333;50.762;4.470;2022-09-13T06:00:33;17.40;99.90
38973;DHT22;25333;50.762;4.470;2022-09-13T06:02:59;17.40;99.90
38973;DHT22;25333;50.762;4.470;2022-09-13T06:05:25;17.50;99.90
38973;DHT22;25333;50.762;4.470;2022-09-13T06:07:50;17.50;99.90
38973;DHT22;25333;50.762;4.470;2022-09-13T06:10:16;17.50;99.90
38973;DHT22;25333;50.762;4.470;2022-09-13T06:12:42;17.50;99.90
38973;DHT22;25333;50.762;4.470;2022-09-13T06:15:08;17.60;99.90
38973;DHT22;25333;50.762;4.470;2022-09-13T06:17:33;17.50;99.90
38973;DHT22;25333;50.762;4.470;2022-09-13T06:19:59;17.40;99.90
38973;DHT22;25333;50.762;4.470;2022-09-13T06:22:24;17.40;99.90
38973;DHT22;25333;50.762;4.470;2022-09-13T06:24:57;17.50;99.90
38973;DHT22;25333;50.762;4.470;2022-09-13T06:27:23;17.50;99.90
38973;DHT22;25333;50.762;4.470;2022-09-13T06:29:49;17.60;99.90
38973;DHT22;25333;50.762;4.470;2022-09-13T06:32:14;17.60;99.90
38973;DHT22;25333;50.762;4.470;2022-09-13T06:34:40;17.50;99.90
38973;DHT22;25333;50.762;4.470;2022-09-13T06:37:05;17.50;99.90
38973;DHT22;25333;50.762;4.470;2022-09-13T06:39:31;17.50;99.90
38973;DHT22;25333;50.762;4.470;2022-09-13T06:41:58;17.60;99.90
38973;DHT22;25333;50.762;4.470;2022-09-13T06:44:24;17.70;99.90
38973;DHT22;25333;50.762;4.470;2022-09-13T06:46:49;17.70;99.90
38973;DHT22;25333;50.762;4.470;2022-09-13T06:49:15;17.80;99.90
38973;DHT22;25333;50.762;4.470;2022-09-13T06:51:41;17.80;99.90
38973;DHT22;25333;50.762;4.470;2022-09-13T06:54:06;17.80;99.90
38973;DHT22;25333;50.762;4.470;2022-09-13T06:56:36;17.90;99.90
38973;DHT22;25333;50.762;4.470;2022-09-13T06:59:05;17.90;99.90
38973;DHT22;25333;50.762;4.470;2022-09-13T07:01:35;17.90;99.90
38973;DHT22;25333;50.762;4.470;2022-09-13T07:04:04;17.90;99.90
38973;DHT22;25333;50.762;4.470;2022-09-13T07:06:32;17.90;99.90
38973;DHT22;25333;50.762;4.470;2022-09-13T07:08:59;18.00;99.90
38973;DHT22;25333;50.762;4.470;2022-09-13T07:11:29;18.00;99.90
38973;DHT22;25333;50.762;4.470;2022-09-13T07:13:56;18.00;99.90
38973;DHT22;25333;50.762;4.470;2022-09-13T07:16:25;18.10;99.90
38973;DHT22;25333;50.762;4.470;2022-09-13T07:18:53;18.10;99.90
38973;DHT22;25333;50.762;4.470;2022-09-13T07:21:19;18.10;99.90
38973;DHT22;25333;50.762;4.470;2022-09-13T07:23:45;18.20;99.90
38973;DHT22;25333;50.762;4.470;2022-09-13T07:26:11;18.20;99.90
38973;DHT22;25333;50.762;4.470;2022-09-13T07:28:39;18.20;99.90
38973;DHT22;25333;50.762;4.470;2022-09-13T07:31:12;18.20;99.90
38973;DHT22;25333;50.762;4.470;2022-09-13T07:33:39;18.20;99.90
38973;DHT22;25333;50.762;4.470;2022-09-13T07:36:05;18.20;99.90
38973;DHT22;25333;50.762;4.470;2022-09-13T07:38:35;18.20;99.90
38973;DHT22;25333;50.762;4.470;2022-09-13T07:41:02;18.30;99.90
38973;DHT22;25333;50.762;4.470;2022-09-13T07:43:31;18.30;99.90
38973;DHT22;25333;50.762;4.470;2022-09-13T07:46:02;18.40;99.90
38973;DHT22;25333;50.762;4.470;2022-09-13T07:48:30;18.40;99.90
38973;DHT22;25333;50.762;4.470;2022-09-13T07:53:26;18.60;99.90
38973;DHT22;25333;50.762;4.470;2022-09-13T07:55:52;18.70;99.90
38973;DHT22;25333;50.762;4.470;2022-09-13T07:58:18;18.70;99.90
38973;DHT22;25333;50.762;4.470;2022-09-13T08:00:44;18.80;99.90
38973;DHT22;25333;50.762;4.470;2022-09-13T08:03:10;18.90;99.90
38973;DHT22;25333;50.762;4.470;2022-09-13T08:05:39;18.90;99.90
38973;DHT22;25333;50.762;4.470;2022-09-13T08:08:05;18.90;99.90
38973;DHT22;25333;50.762;4.470;2022-09-13T08:10:32;19.10;99.90
38973;DHT22;25333;50.762;4.470;2022-09-13T08:12:58;19.20;99.90
38973;DHT22;25333;50.762;4.470;2022-09-13T08:15:24;19.30;99.90
38973;DHT22;25333;50.762;4.470;2022-09-13T08:17:49;19.40;99.90
38973;DHT22;25333;50.762;4.470;2022-09-13T08:20:15;19.60;99.90
38973;DHT22;25333;50.762;4.470;2022-09-13T08:22:40;19.70;99.90
38973;DHT22;25333;50.762;4.470;2022-09-13T08:25:06;19.80;99.90
38973;DHT22;25333;50.762;4.470;2022-09-13T08:27:32;19.90;99.90
38973;DHT22;25333;50.762;4.470;2022-09-13T08:29:57;20.00;99.90
38973;DHT22;25333;50.762;4.470;2022-09-13T08:32:23;20.10;99.90
38973;DHT22;25333;50.762;4.470;2022-09-13T08:34:48;20.10;99.90
38973;DHT22;25333;50.762;4.470;2022-09-13T08:37:14;20.20;99.90
38973;DHT22;25333;50.762;4.470;2022-09-13T08:39:40;20.30;99.90
38973;DHT22;25333;50.762;4.470;2022-09-13T08:44:52;20.30;99.90
38973;DHT22;25333;50.762;4.470;2022-09-13T08:49:46;20.40;99.90
38973;DHT22;25333;50.762;4.470;2022-09-13T08:54:50;20.50;99.90
38973;DHT22;25333;50.762;4.470;2022-09-13T08:57:24;20.60;99.90
38973;DHT22;25333;50.762;4.470;2022-09-13T09:00:16;20.60;99.90
38973;DHT22;25333;50.762;4.470;2022-09-13T09:05:45;20.70;99.90
38973;DHT22;25333;50.762;4.470;2022-09-13T09:08:31;20.90;99.90
38973;DHT22;25333;50.762;4.470;2022-09-13T09:11:02;20.90;99.90
38973;DHT22;25333;50.762;4.470;2022-09-13T09:16:39;21.00;99.90
38973;DHT22;25333;50.762;4.470;2022-09-13T09:22:16;21.20;99.90
38973;DHT22;25333;50.762;4.470;2022-09-13T09:24:45;21.20;99.90
38973;DHT22;25333;50.762;4.470;2022-09-13T09:27:17;21.10;99.90
38973;DHT22;25333;50.762;4.470;2022-09-13T09:29:44;21.20;99.90
38973;DHT22;25333;50.762;4.470;2022-09-13T09:38:03;21.20;99.90
38973;DHT22;25333;50.762;4.470;2022-09-13T09:40:34;21.30;99.90
38973;DHT22;25333;50.762;4.470;2022-09-13T09:43:16;21.30;99.90
38973;DHT22;25333;50.762;4.470;2022-09-13T09:45:44;21.30;99.90
38973;DHT22;25333;50.762;4.470;2022-09-13T09:48:15;21.30;99.90
38973;DHT22;25333;50.762;4.470;2022-09-13T09:50:46;21.30;99.90
38973;DHT22;25333;50.762;4.470;2022-09-13T09:53:39;21.40;99.90
38973;DHT22;25333;50.762;4.470;2022-09-13T09:58:48;21.50;99.90
38973;DHT22;25333;50.762;4.470;2022-09-13T10:01:24;21.60;99.90
38973;DHT22;25333;50.762;4.470;2022-09-13T10:06:46;21.60;99.90
38973;DHT22;25333;50.762;4.470;2022-09-13T10:09:16;21.60;99.90
38973;DHT22;25333;50.762;4.470;2022-09-13T10:14:42;21.70;99.90
38973;DHT22;25333;50.762;4.470;2022-09-13T10:17:26;21.70;99.90
38973;DHT22;25333;50.762;4.470;2022-09-13T10:19:53;21.80;99.90
38973;DHT22;25333;50.762;4.470;2022-09-13T10:22:19;21.80;99.90
38973;DHT22;25333;50.762;4.470;2022-09-13T10:24:45;21.80;99.90
38973;DHT22;25333;50.762;4.470;2022-09-13T10:29:53;21.80;99.90
38973;DHT22;25333;50.762;4.470;2022-09-13T10:32:24;21.70;99.90
38973;DHT22;25333;50.762;4.470;2022-09-13T10:34:50;21.70;99.90
38973;DHT22;25333;50.762;4.470;2022-09-13T10:37:26;21.60;99.90
38973;DHT22;25333;50.762;4.470;2022-09-13T10:40:05;21.70;99.90
38973;DHT22;25333;50.762;4.470;2022-09-13T10:42:33;21.70;99.90
38973;DHT22;25333;50.762;4.470;2022-09-13T10:45:05;21.60;99.90
38973;DHT22;25333;50.762;4.470;2022-09-13T10:47:44;21.60;99.90
38973;DHT22;25333;50.762;4.470;2022-09-13T10:52:49;21.70;99.90
38973;DHT22;25333;50.762;4.470;2022-09-13T10:57:48;21.90;99.90
38973;DHT22;25333;50.762;4.470;2022-09-13T11:00:19;22.00;99.90
38973;DHT22;25333;50.762;4.470;2022-09-13T11:03:11;22.00;99.90
38973;DHT22;25333;50.762;4.470;2022-09-13T11:14:09;22.20;99.90
38973;DHT22;25333;50.762;4.470;2022-09-13T11:19:45;22.20;99.90
38973;DHT22;25333;50.762;4.470;2022-09-13T11:25:25;22.20;99.90
38973;DHT22;25333;50.762;4.470;2022-09-13T11:28:07;22.20;99.90
38973;DHT22;25333;50.762;4.470;2022-09-13T11:55:53;22.30;99.90
38973;DHT22;25333;50.762;4.470;2022-09-13T11:59:07;22.30;99.90
38973;DHT22;25333;50.762;4.470;2022-09-13T12:01:32;22.40;99.90
38973;DHT22;25333;50.762;4.470;2022-09-13T12:04:16;22.40;99.90
38973;DHT22;25333;50.762;4.470;2022-09-13T12:06:49;22.50;99.90
38973;DHT22;25333;50.762;4.470;2022-09-13T12:09:34;22.50;99.90
38973;DHT22;25333;50.762;4.470;2022-09-13T12:12:08;22.40;99.90
38973;DHT22;25333;50.762;4.470;2022-09-13T12:14:59;22.40;99.90
38973;DHT22;25333;50.762;4.470;2022-09-13T12:17:44;22.50;99.90
38973;DHT22;25333;50.762;4.470;2022-09-13T12:20:28;22.40;99.90
38973;DHT22;25333;50.762;4.470;2022-09-13T12:22:58;22.40;99.90
38973;DHT22;25333;50.762;4.470;2022-09-13T12:25:40;22.40;99.90
38973;DHT22;25333;50.762;4.470;2022-09-13T12:28:23;22.40;99.90
38973;DHT22;25333;50.762;4.470;2022-09-13T12:31:01;22.40;99.90
38973;DHT22;25333;50.762;4.470;2022-09-13T12:33:29;22.40;99.90
38973;DHT22;25333;50.762;4.470;2022-09-13T12:45:10;22.60;99.90
38973;DHT22;25333;50.762;4.470;2022-09-13T12:47:28;22.60;99.90
38973;DHT22;25333;50.762;4.470;2022-09-13T12:53:35;22.60;99.90
38973;DHT22;25333;50.762;4.470;2022-09-13T13:01:48;22.60;99.90
38973;DHT22;25333;50.762;4.470;2022-09-13T13:04:24;22.60;99.90
38973;DHT22;25333;50.762;4.470;2022-09-13T13:07:03;22.60;99.90
38973;DHT22;25333;50.762;4.470;2022-09-13T13:09:37;22.70;99.90
38973;DHT22;25333;50.762;4.470;2022-09-13T13:12:10;22.70;99.90
38973;DHT22;25333;50.762;4.470;2022-09-13T13:23:32;22.60;99.90
38973;DHT22;25333;50.762;4.470;2022-09-13T13:42:00;22.40;99.90
38973;DHT22;25333;50.762;4.470;2022-09-13T13:57:34;22.50;99.90
38973;DHT22;25333;50.762;4.470;2022-09-13T14:00:21;22.40;99.90
38973;DHT22;25333;50.762;4.470;2022-09-13T14:05:50;22.30;99.90
38973;DHT22;25333;50.762;4.470;2022-09-13T14:17:29;22.30;99.90
38973;DHT22;25333;50.762;4.470;2022-09-13T14:20:02;22.30;99.90
38973;DHT22;25333;50.762;4.470;2022-09-13T14:22:29;22.20;99.90
38973;DHT22;25333;50.762;4.470;2022-09-13T14:24:57;22.20;99.90
38973;DHT22;25333;50.762;4.470;2022-09-13T14:29:52;22.20;99.90
38973;DHT22;25333;50.762;4.470;2022-09-13T14:32:24;22.20;99.90
38973;DHT22;25333;50.762;4.470;2022-09-13T14:37:36;22.30;99.90
38973;DHT22;25333;50.762;4.470;2022-09-13T14:42:42;22.30;99.90
38973;DHT22;25333;50.762;4.470;2022-09-13T14:45:13;22.30;99.90
38973;DHT22;25333;50.762;4.470;2022-09-13T14:51:00;22.30;99.90
38973;DHT22;25333;50.762;4.470;2022-09-13T14:53:30;22.30;99.90
38973;DHT22;25333;50.762;4.470;2022-09-13T14:56:32;22.30;99.90
38973;DHT22;25333;50.762;4.470;2022-09-13T14:59:02;22.30;99.90
38973;DHT22;25333;50.762;4.470;2022-09-13T15:01:34;22.30;99.90
38973;DHT22;25333;50.762;4.470;2022-09-13T15:04:02;22.40;99.90
38973;DHT22;25333;50.762;4.470;2022-09-13T15:06:31;22.40;99.90
38973;DHT22;25333;50.762;4.470;2022-09-13T15:09:15;22.40;99.90
38973;DHT22;25333;50.762;4.470;2022-09-13T15:17:07;22.30;99.90
38973;DHT22;25333;50.762;4.470;2022-09-13T15:19:39;22.30;99.90
38973;DHT22;25333;50.762;4.470;2022-09-13T15:22:20;22.40;99.90
38973;DHT22;25333;50.762;4.470;2022-09-13T15:25:16;22.30;99.90
38973;DHT22;25333;50.762;4.470;2022-09-13T15:27:44;22.30;99.90
38973;DHT22;25333;50.762;4.470;2022-09-13T15:35:41;22.20;99.90
38973;DHT22;25333;50.762;4.470;2022-09-13T15:38:26;22.20;99.90
38973;DHT22;25333;50.762;4.470;2022-09-13T15:41:09;22.10;99.90
38973;DHT22;25333;50.762;4.470;2022-09-13T15:43:36;22.00;99.90
38973;DHT22;25333;50.762;4.470;2022-09-13T15:46:02;22.00;99.90
38973;DHT22;25333;50.762;4.470;2022-09-13T15:48:30;21.90;99.90
38973;DHT22;25333;50.762;4.470;2022-09-13T15:51:12;22.00;99.90
38973;DHT22;25333;50.762;4.470;2022-09-13T15:53:40;22.00;99.90
38973;DHT22;25333;50.762;4.470;2022-09-13T15:56:08;22.00;99.90
38973;DHT22;25333;50.762;4.470;2022-09-13T15:58:37;22.00;99.90
38973;DHT22;25333;50.762;4.470;2022-09-13T16:01:03;22.00;99.90
38973;DHT22;25333;50.762;4.470;2022-09-13T16:03:29;22.00;99.90
38973;DHT22;25333;50.762;4.470;2022-09-13T16:05:55;22.00;99.90
38973;DHT22;25333;50.762;4.470;2022-09-13T16:08:23;21.90;99.90
38973;DHT22;25333;50.762;4.470;2022-09-13T16:10:48;22.00;99.90
38973;DHT22;25333;50.762;4.470;2022-09-13T16:13:14;22.00;99.90
38973;DHT22;25333;50.762;4.470;2022-09-13T16:15:40;22.00;99.90
38973;DHT22;25333;50.762;4.470;2022-09-13T16:18:05;22.00;99.90
38973;DHT22;25333;50.762;4.470;2022-09-13T16:20:31;22.00;99.90
38973;DHT22;25333;50.762;4.470;2022-09-13T16:22:56;22.00;99.90
38973;DHT22;25333;50.762;4.470;2022-09-13T16:25:22;21.90;99.90
38973;DHT22;25333;50.762;4.470;2022-09-13T16:27:49;21.90;99.90
38973;DHT22;25333;50.762;4.470;2022-09-13T16:30:19;21.90;99.90
38973;DHT22;25333;50.762;4.470;2022-09-13T16:32:45;21.80;99.90
38973;DHT22;25333;50.762;4.470;2022-09-13T16:35:11;21.70;99.90
38973;DHT22;25333;50.762;4.470;2022-09-13T16:37:39;21.70;99.90
38973;DHT22;25333;50.762;4.470;2022-09-13T16:40:06;21.70;99.90
38973;DHT22;25333;50.762;4.470;2022-09-13T16:42:33;21.60;99.90
38973;DHT22;25333;50.762;4.470;2022-09-13T16:44:59;21.50;99.90
38973;DHT22;25333;50.762;4.470;2022-09-13T16:47:25;21.50;99.90
38973;DHT22;25333;50.762;4.470;2022-09-13T16:49:51;21.50;99.90
38973;DHT22;25333;50.762;4.470;2022-09-13T16:52:17;21.40;99.90
38973;DHT22;25333;50.762;4.470;2022-09-13T16:54:43;21.40;99.90
38973;DHT22;25333;50.762;4.470;2022-09-13T16:57:11;21.40;99.90
38973;DHT22;25333;50.762;4.470;2022-09-13T16:59:38;21.30;99.90
38973;DHT22;25333;50.762;4.470;2022-09-13T17:02:06;21.20;99.90
38973;DHT22;25333;50.762;4.470;2022-09-13T17:04:32;21.10;99.90
38973;DHT22;25333;50.762;4.470;2022-09-13T17:06:58;20.90;99.90
38973;DHT22;25333;50.762;4.470;2022-09-13T17:09:26;20.70;99.90
38973;DHT22;25333;50.762;4.470;2022-09-13T17:11:52;20.60;99.90
38973;DHT22;25333;50.762;4.470;2022-09-13T17:14:18;20.50;99.90
38973;DHT22;25333;50.762;4.470;2022-09-13T17:16:54;20.50;99.90
38973;DHT22;25333;50.762;4.470;2022-09-13T17:19:23;20.60;99.90
38973;DHT22;25333;50.762;4.470;2022-09-13T17:21:50;20.60;99.90
38973;DHT22;25333;50.762;4.470;2022-09-13T17:24:16;20.60;99.90
38973;DHT22;25333;50.762;4.470;2022-09-13T17:26:42;20.60;99.90
38973;DHT22;25333;50.762;4.470;2022-09-13T17:29:10;20.50;99.90
38973;DHT22;25333;50.762;4.470;2022-09-13T17:31:35;20.50;99.90
38973;DHT22;25333;50.762;4.470;2022-09-13T17:34:01;20.50;99.90
38973;DHT22;25333;50.762;4.470;2022-09-13T17:36:26;20.50;99.90
38973;DHT22;25333;50.762;4.470;2022-09-13T17:38:56;20.50;99.90
38973;DHT22;25333;50.762;4.470;2022-09-13T17:41:23;20.40;99.90
38973;DHT22;25333;50.762;4.470;2022-09-13T17:43:49;20.30;99.90
38973;DHT22;25333;50.762;4.470;2022-09-13T17:46:20;20.10;99.90
38973;DHT22;25333;50.762;4.470;2022-09-13T17:48:47;20.10;99.90
38973;DHT22;25333;50.762;4.470;2022-09-13T17:51:15;20.10;99.90
38973;DHT22;25333;50.762;4.470;2022-09-13T17:53:47;20.10;99.90
38973;DHT22;25333;50.762;4.470;2022-09-13T17:56:17;20.20;99.90
38973;DHT22;25333;50.762;4.470;2022-09-13T17:58:43;20.10;99.90
38973;DHT22;25333;50.762;4.470;2022-09-13T18:01:09;20.00;99.90
38973;DHT22;25333;50.762;4.470;2022-09-13T18:03:36;19.90;99.90
38973;DHT22;25333;50.762;4.470;2022-09-13T18:06:06;19.90;99.90
38973;DHT22;25333;50.762;4.470;2022-09-13T18:08:34;19.90;99.90
38973;DHT22;25333;50.762;4.470;2022-09-13T18:11:12;19.90;99.90
38973;DHT22;25333;50.762;4.470;2022-09-13T18:13:38;20.00;99.90
38973;DHT22;25333;50.762;4.470;2022-09-13T18:16:07;20.00;99.90
38973;DHT22;25333;50.762;4.470;2022-09-13T18:18:34;19.90;99.90
38973;DHT22;25333;50.762;4.470;2022-09-13T18:21:01;19.90;99.90
38973;DHT22;25333;50.762;4.470;2022-09-13T18:23:27;19.90;99.90
38973;DHT22;25333;50.762;4.470;2022-09-13T18:25:58;19.90;99.90
38973;DHT22;25333;50.762;4.470;2022-09-13T18:28:24;19.90;99.90
38973;DHT22;25333;50.762;4.470;2022-09-13T18:30:57;19.90;99.90
38973;DHT22;25333;50.762;4.470;2022-09-13T18:33:24;20.00;99.90
38973;DHT22;25333;50.762;4.470;2022-09-13T18:36:09;19.90;99.90
38973;DHT22;25333;50.762;4.470;2022-09-13T18:38:38;19.90;99.90
38973;DHT22;25333;50.762;4.470;2022-09-13T18:41:19;19.90;99.90
38973;DHT22;25333;50.762;4.470;2022-09-13T18:43:46;19.90;99.90
38973;DHT22;25333;50.762;4.470;2022-09-13T18:46:15;19.90;99.90
38973;DHT22;25333;50.762;4.470;2022-09-13T18:48:45;19.80;99.90
38973;DHT22;25333;50.762;4.470;2022-09-13T18:51:16;19.80;99.90
38973;DHT22;25333;50.762;4.470;2022-09-13T18:53:43;19.80;99.90
38973;DHT22;25333;50.762;4.470;2022-09-13T18:56:11;19.70;99.90
38973;DHT22;25333;50.762;4.470;2022-09-13T18:58:38;19.60;99.90
38973;DHT22;25333;50.762;4.470;2022-09-13T19:03:33;19.40;99.90
38973;DHT22;25333;50.762;4.470;2022-09-13T19:06:21;19.50;99.90
38973;DHT22;25333;50.762;4.470;2022-09-13T19:08:47;19.50;99.90
38973;DHT22;25333;50.762;4.470;2022-09-13T19:11:14;19.50;99.90
38973;DHT22;25333;50.762;4.470;2022-09-13T19:13:40;19.50;99.90
38973;DHT22;25333;50.762;4.470;2022-09-13T19:16:08;19.50;99.90
38973;DHT22;25333;50.762;4.470;2022-09-13T19:18:37;19.50;99.90
38973;DHT22;25333;50.762;4.470;2022-09-13T19:21:08;19.50;99.90
38973;DHT22;25333;50.762;4.470;2022-09-13T19:23:35;19.40;99.90
38973;DHT22;25333;50.762;4.470;2022-09-13T19:26:02;19.40;99.90
38973;DHT22;25333;50.762;4.470;2022-09-13T19:28:28;19.30;99.90
38973;DHT22;25333;50.762;4.470;2022-09-13T19:30:54;19.20;99.90
38973;DHT22;25333;50.762;4.470;2022-09-13T19:33:19;19.20;99.90
38973;DHT22;25333;50.762;4.470;2022-09-13T19:35:45;19.30;99.90
38973;DHT22;25333;50.762;4.470;2022-09-13T19:38:10;19.30;99.90
38973;DHT22;25333;50.762;4.470;2022-09-13T19:40:37;19.30;99.90